TimeMDT,TemperatureF,Dew PointF,Humidity,Sea Level PressureIn,VisibilityMPH,Wind Direction,Wind SpeedMPH,Gust SpeedMPH,PrecipitationIn,Events,Conditions,WindDirDegrees,DateUTC
12:53 AM,43.0,26.1,51,30.04,10.0,WSW,10.4,-,N/A,,Clear,240,2012-10-29 06:53:00
1:53 AM,39.0,28.0,65,30.06,10.0,WSW,9.2,-,N/A,,Clear,250,2012-10-29 07:53:00
2:53 AM,39.0,28.0,65,30.05,10.0,WSW,10.4,-,N/A,,Clear,240,2012-10-29 08:53:00
3:53 AM,39.0,27.0,62,30.04,10.0,WSW,6.9,-,N/A,,Clear,250,2012-10-29 09:53:00
4:53 AM,37.0,26.1,65,30.06,10.0,West,6.9,-,N/A,,Clear,270,2012-10-29 10:53:00
5:53 AM,37.0,26.1,65,30.10,10.0,WSW,9.2,-,N/A,,Clear,240,2012-10-29 11:53:00
6:53 AM,37.9,26.1,62,30.11,10.0,West,6.9,-,N/A,,Clear,260,2012-10-29 12:53:00
7:53 AM,41.0,26.1,55,30.11,10.0,WSW,8.1,-,N/A,,Clear,250,2012-10-29 13:53:00
8:53 AM,51.1,27.0,39,30.09,10.0,West,3.5,-,N/A,,Clear,280,2012-10-29 14:53:00
9:53 AM,60.1,28.0,30,30.08,10.0,WSW,4.6,-,N/A,,Clear,250,2012-10-29 15:53:00
10:53 AM,68.0,26.1,21,30.05,10.0,South,8.1,-,N/A,,Clear,190,2012-10-29 16:53:00
11:53 AM,71.1,28.0,20,30.03,10.0,SSW,8.1,-,N/A,,Clear,200,2012-10-29 17:53:00
12:53 PM,73.0,28.9,20,30.00,10.0,WNW,9.2,-,N/A,,Partly Cloudy,290,2012-10-29 18:53:00
1:53 PM,73.4,26.6,18,30.05,10.0,West,13.8,-,N/A,,Partly Cloudy,260,2012-10-29 19:53:00
2:53 PM,72.0,26.1,18,29.98,10.0,SW,8.1,-,N/A,,Clear,220,2012-10-29 20:53:00
3:53 PM,75.0,28.0,18,29.97,10.0,West,15.0,-,N/A,,Partly Cloudy,280,2012-10-29 21:53:00
4:53 PM,71.1,28.0,20,29.98,10.0,West,6.9,-,N/A,,Clear,260,2012-10-29 22:53:00
5:53 PM,61.0,28.9,30,30.01,10.0,West,5.8,-,N/A,,Clear,270,2012-10-29 23:53:00
6:53 PM,60.1,28.9,31,30.02,10.0,Calm,Calm,-,N/A,,Clear,0,2012-10-30 00:53:00
7:53 PM,51.1,30.0,44,30.04,10.0,WSW,6.9,-,N/A,,Clear,240,2012-10-30 01:53:00
8:53 PM,51.1,30.0,44,30.01,10.0,WSW,10.4,-,N/A,,Clear,250,2012-10-30 02:53:00
9:53 PM,52.0,30.0,43,29.99,10.0,WSW,11.5,-,N/A,,Clear,250,2012-10-30 03:53:00
10:53 PM,50.0,30.0,46,29.98,10.0,West,10.4,-,N/A,,Clear,260,2012-10-30 04:53:00
11:53 PM,46.9,28.9,50,29.98,10.0,WSW,10.4,-,N/A,,Clear,250,2012-10-30 05:53:00